sensor_id;sensor_type;location;lat;lon;timestamp;P1;P2;P0
71858;PMS5003;59713;50.866;4.324;2024-01-06T00:00:25;5;3;
71858;PMS5003;59713;50.866;4.324;2024-01-06T00:01:25;5;3;
71858;PMS5003;59713;50.866;4.324;2024-01-06T00:02:25;5;3;
71858;PMS5003;59713;50.866;4.324;2024-01-06T00:03:25;5;5;
71858;PMS5003;59713;50.866;4.324;2024-01-06T00:03:25;5;5;
71858;PMS5003;59713;50.866;4.324;2024-01-06T00:04:25;5;5;
71858;PMS5003;59713;50.866;4.324;2024-01-06T00:05:25;5;5;
71858;PMS5003;59713;50.866;4.324;2024-01-06T00:06:25;3;3;
71858;PMS5003;59713;50.866;4.324;2024-01-06T00:07:25;3;3;
71858;PMS5003;59713;50.866;4.324;2024-01-06T00:08:26;3;3;
71858;PMS5003;59713;50.866;4.324;2024-01-06T00:09:25;7;6;
71858;PMS5003;59713;50.866;4.324;2024-01-06T00:10:25;7;6;
71858;PMS5003;59713;50.866;4.324;2024-01-06T00:11:25;7;6;
71858;PMS5003;59713;50.866;4.324;2024-01-06T00:12:25;3;3;
71858;PMS5003;59713;50.866;4.324;2024-01-06T00:13:25;3;3;
71858;PMS5003;59713;50.866;4.324;2024-01-06T00:13:25;3;3;
71858;PMS5003;59713;50.866;4.324;2024-01-06T00:14:25;3;3;
71858;PMS5003;59713;50.866;4.324;2024-01-06T00:15:25;6;5;
71858;PMS5003;59713;50.866;4.324;2024-01-06T00:16:25;6;5;
71858;PMS5003;59713;50.866;4.324;2024-01-06T00:17:27;6;5;
71858;PMS5003;59713;50.866;4.324;2024-01-06T00:18:26;5;4;
71858;PMS5003;59713;50.866;4.324;2024-01-06T00:19:25;5;4;
71858;PMS5003;59713;50.866;4.324;2024-01-06T00:20:25;5;4;
71858;PMS5003;59713;50.866;4.324;2024-01-06T00:21:25;5;5;
71858;PMS5003;59713;50.866;4.324;2024-01-06T00:22:25;5;5;
71858;PMS5003;59713;50.866;4.324;2024-01-06T00:22:25;5;5;
71858;PMS5003;59713;50.866;4.324;2024-01-06T00:23:25;5;5;
71858;PMS5003;59713;50.866;4.324;2024-01-06T00:24:25;3;3;
71858;PMS5003;59713;50.866;4.324;2024-01-06T00:25:25;3;3;
71858;PMS5003;59713;50.866;4.324;2024-01-06T00:26:25;3;3;
71858;PMS5003;59713;50.866;4.324;2024-01-06T00:27:26;5;4;
71858;PMS5003;59713;50.866;4.324;2024-01-06T00:28:26;5;4;
71858;PMS5003;59713;50.866;4.324;2024-01-06T00:29:25;5;4;
71858;PMS5003;59713;50.866;4.324;2024-01-06T00:30:25;7;4;
71858;PMS5003;59713;50.866;4.324;2024-01-06T00:31:25;7;4;
71858;PMS5003;59713;50.866;4.324;2024-01-06T00:31:26;7;4;
71858;PMS5003;59713;50.866;4.324;2024-01-06T00:32:25;7;4;
71858;PMS5003;59713;50.866;4.324;2024-01-06T00:33:25;3;3;
71858;PMS5003;59713;50.866;4.324;2024-01-06T00:34:25;3;3;
71858;PMS5003;59713;50.866;4.324;2024-01-06T00:35:25;3;3;
71858;PMS5003;59713;50.866;4.324;2024-01-06T00:36:25;3;3;
71858;PMS5003;59713;50.866;4.324;2024-01-06T00:37:25;3;3;
71858;PMS5003;59713;50.866;4.324;2024-01-06T00:38:25;3;3;
71858;PMS5003;59713;50.866;4.324;2024-01-06T00:39:25;3;2;
71858;PMS5003;59713;50.866;4.324;2024-01-06T00:40:26;3;2;
71858;PMS5003;59713;50.866;4.324;2024-01-06T00:40:26;3;2;
71858;PMS5003;59713;50.866;4.324;2024-01-06T00:41:26;3;2;
71858;PMS5003;59713;50.866;4.324;2024-01-06T00:42:25;3;3;
71858;PMS5003;59713;50.866;4.324;2024-01-06T00:43:25;3;3;
71858;PMS5003;59713;50.866;4.324;2024-01-06T00:44:25;3;3;
71858;PMS5003;59713;50.866;4.324;2024-01-06T00:45:25;8;3;
71858;PMS5003;59713;50.866;4.324;2024-01-06T00:46:25;8;3;
71858;PMS5003;59713;50.866;4.324;2024-01-06T00:47:25;8;3;
71858;PMS5003;59713;50.866;4.324;2024-01-06T00:48:25;2;2;
71858;PMS5003;59713;50.866;4.324;2024-01-06T00:49:26;2;2;
71858;PMS5003;59713;50.866;4.324;2024-01-06T00:49:26;2;2;
71858;PMS5003;59713;50.866;4.324;2024-01-06T00:50:26;2;2;
71858;PMS5003;59713;50.866;4.324;2024-01-06T00:51:26;3;3;
71858;PMS5003;59713;50.866;4.324;2024-01-06T00:52:27;3;3;
71858;PMS5003;59713;50.866;4.324;2024-01-06T00:53:26;3;3;
71858;PMS5003;59713;50.866;4.324;2024-01-06T00:54:25;3;3;
71858;PMS5003;59713;50.866;4.324;2024-01-06T00:55:26;3;3;
71858;PMS5003;59713;50.866;4.324;2024-01-06T00:56:26;3;3;
71858;PMS5003;59713;50.866;4.324;2024-01-06T00:57:26;2;2;
71858;PMS5003;59713;50.866;4.324;2024-01-06T00:58:26;2;2;
71858;PMS5003;59713;50.866;4.324;2024-01-06T00:58:26;2;2;
71858;PMS5003;59713;50.866;4.324;2024-01-06T00:59:26;2;2;
71858;PMS5003;59713;50.866;4.324;2024-01-06T01:00:26;5;3;
71858;PMS5003;59713;50.866;4.324;2024-01-06T01:01:26;5;3;
71858;PMS5003;59713;50.866;4.324;2024-01-06T01:02:26;5;3;
71858;PMS5003;59713;50.866;4.324;2024-01-06T01:03:26;5;5;
71858;PMS5003;59713;50.866;4.324;2024-01-06T01:04:26;5;5;
71858;PMS5003;59713;50.866;4.324;2024-01-06T01:05:27;5;5;
71858;PMS5003;59713;50.866;4.324;2024-01-06T01:06:26;2;2;
71858;PMS5003;59713;50.866;4.324;2024-01-06T01:07:26;2;2;
71858;PMS5003;59713;50.866;4.324;2024-01-06T01:07:26;2;2;
71858;PMS5003;59713;50.866;4.324;2024-01-06T01:08:26;2;2;
71858;PMS5003;59713;50.866;4.324;2024-01-06T01:09:26;4;4;
71858;PMS5003;59713;50.866;4.324;2024-01-06T01:10:26;4;4;
71858;PMS5003;59713;50.866;4.324;2024-01-06T01:11:26;4;4;
71858;PMS5003;59713;50.866;4.324;2024-01-06T01:12:26;5;2;
71858;PMS5003;59713;50.866;4.324;2024-01-06T01:13:26;5;2;
71858;PMS5003;59713;50.866;4.324;2024-01-06T01:14:26;5;2;
71858;PMS5003;59713;50.866;4.324;2024-01-06T01:15:26;3;3;
71858;PMS5003;59713;50.866;4.324;2024-01-06T01:16:26;3;3;
71858;PMS5003;59713;50.866;4.324;2024-01-06T01:16:26;3;3;
71858;PMS5003;59713;50.866;4.324;2024-01-06T01:17:26;3;3;
71858;PMS5003;59713;50.866;4.324;2024-01-06T01:18:26;4;2;
71858;PMS5003;59713;50.866;4.324;2024-01-06T01:19:26;4;2;
71858;PMS5003;59713;50.866;4.324;2024-01-06T01:20:26;4;2;
71858;PMS5003;59713;50.866;4.324;2024-01-06T01:21:26;2;2;
71858;PMS5003;59713;50.866;4.324;2024-01-06T01:22:26;2;2;
71858;PMS5003;59713;50.866;4.324;2024-01-06T01:23:26;2;2;
71858;PMS5003;59713;50.866;4.324;2024-01-06T01:24:26;4;3;
71858;PMS5003;59713;50.866;4.324;2024-01-06T01:25:26;4;3;
71858;PMS5003;59713;50.866;4.324;2024-01-06T01:25:26;4;3;
71858;PMS5003;59713;50.866;4.324;2024-01-06T01:26:26;4;3;
71858;PMS5003;59713;50.866;4.324;2024-01-06T01:27:26;3;3;
71858;PMS5003;59713;50.866;4.324;2024-01-06T01:28:26;3;3;
71858;PMS5003;59713;50.866;4.324;2024-01-06T01:29:26;3;3;
71858;PMS5003;59713;50.866;4.324;2024-01-06T01:30:26;3;3;
71858;PMS5003;59713;50.866;4.324;2024-01-06T01:31:26;3;3;
71858;PMS5003;59713;50.866;4.324;2024-01-06T01:32:26;3;3;
71858;PMS5003;59713;50.866;4.324;2024-01-06T01:33:26;2;2;
71858;PMS5003;59713;50.866;4.324;2024-01-06T01:34:26;2;2;
71858;PMS5003;59713;50.866;4.324;2024-01-06T01:35:26;2;2;
71858;PMS5003;59713;50.866;4.324;2024-01-06T01:36:28;2;2;
71858;PMS5003;59713;50.866;4.324;2024-01-06T01:37:26;2;2;
71858;PMS5003;59713;50.866;4.324;2024-01-06T01:38:26;2;2;
71858;PMS5003;59713;50.866;4.324;2024-01-06T01:39:26;3;3;
71858;PMS5003;59713;50.866;4.324;2024-01-06T01:40:26;3;3;
71858;PMS5003;59713;50.866;4.324;2024-01-06T01:41:27;3;3;
71858;PMS5003;59713;50.866;4.324;2024-01-06T01:42:26;2;2;
71858;PMS5003;59713;50.866;4.324;2024-01-06T01:43:26;2;2;
71858;PMS5003;59713;50.866;4.324;2024-01-06T01:44:26;2;2;
71858;PMS5003;59713;50.866;4.324;2024-01-06T01:44:26;2;2;
71858;PMS5003;59713;50.866;4.324;2024-01-06T01:45:26;4;3;
71858;PMS5003;59713;50.866;4.324;2024-01-06T01:46:26;4;3;
71858;PMS5003;59713;50.866;4.324;2024-01-06T01:47:26;4;3;
71858;PMS5003;59713;50.866;4.324;2024-01-06T01:48:26;3;2;
71858;PMS5003;59713;50.866;4.324;2024-01-06T01:49:26;3;2;
71858;PMS5003;59713;50.866;4.324;2024-01-06T01:50:26;3;2;
71858;PMS5003;59713;50.866;4.324;2024-01-06T01:51:26;4;2;
71858;PMS5003;59713;50.866;4.324;2024-01-06T01:52:26;4;2;
71858;PMS5003;59713;50.866;4.324;2024-01-06T01:53:26;4;2;
71858;PMS5003;59713;50.866;4.324;2024-01-06T01:53:26;4;2;
71858;PMS5003;59713;50.866;4.324;2024-01-06T01:54:26;8;4;
71858;PMS5003;59713;50.866;4.324;2024-01-06T01:55:26;8;4;
71858;PMS5003;59713;50.866;4.324;2024-01-06T01:56:26;8;4;
71858;PMS5003;59713;50.866;4.324;2024-01-06T01:57:26;3;3;
71858;PMS5003;59713;50.866;4.324;2024-01-06T01:58:26;3;3;
71858;PMS5003;59713;50.866;4.324;2024-01-06T01:59:26;3;3;
71858;PMS5003;59713;50.866;4.324;2024-01-06T02:00:26;2;1;
71858;PMS5003;59713;50.866;4.324;2024-01-06T02:01:26;2;1;
71858;PMS5003;59713;50.866;4.324;2024-01-06T02:02:26;2;1;
71858;PMS5003;59713;50.866;4.324;2024-01-06T02:02:26;2;1;
71858;PMS5003;59713;50.866;4.324;2024-01-06T02:03:26;1;0;
71858;PMS5003;59713;50.866;4.324;2024-01-06T02:04:26;1;0;
71858;PMS5003;59713;50.866;4.324;2024-01-06T02:05:26;1;0;
71858;PMS5003;59713;50.866;4.324;2024-01-06T02:06:26;2;2;
71858;PMS5003;59713;50.866;4.324;2024-01-06T02:07:26;2;2;
71858;PMS5003;59713;50.866;4.324;2024-01-06T02:08:26;2;2;
71858;PMS5003;59713;50.866;4.324;2024-01-06T02:09:26;2;2;
71858;PMS5003;59713;50.866;4.324;2024-01-06T02:10:26;2;2;
71858;PMS5003;59713;50.866;4.324;2024-01-06T02:11:26;2;2;
71858;PMS5003;59713;50.866;4.324;2024-01-06T02:12:26;1;1;
71858;PMS5003;59713;50.866;4.324;2024-01-06T02:12:26;1;1;
71858;PMS5003;59713;50.866;4.324;2024-01-06T02:13:32;1;1;
71858;PMS5003;59713;50.866;4.324;2024-01-06T02:14:26;1;1;
71858;PMS5003;59713;50.866;4.324;2024-01-06T02:15:26;3;1;
71858;PMS5003;59713;50.866;4.324;2024-01-06T02:16:26;3;1;
71858;PMS5003;59713;50.866;4.324;2024-01-06T02:17:26;3;1;
71858;PMS5003;59713;50.866;4.324;2024-01-06T02:18:26;1;1;
71858;PMS5003;59713;50.866;4.324;2024-01-06T02:19:26;1;1;
71858;PMS5003;59713;50.866;4.324;2024-01-06T02:20:26;1;1;
71858;PMS5003;59713;50.866;4.324;2024-01-06T02:21:26;2;2;
71858;PMS5003;59713;50.866;4.324;2024-01-06T02:22:26;2;2;
71858;PMS5003;59713;50.866;4.324;2024-01-06T02:23:26;2;2;
71858;PMS5003;59713;50.866;4.324;2024-01-06T02:24:26;1;1;
71858;PMS5003;59713;50.866;4.324;2024-01-06T02:25:26;1;1;
71858;PMS5003;59713;50.866;4.324;2024-01-06T02:26:26;1;1;
71858;PMS5003;59713;50.866;4.324;2024-01-06T02:27:26;1;1;
71858;PMS5003;59713;50.866;4.324;2024-01-06T02:28:26;1;1;
71858;PMS5003;59713;50.866;4.324;2024-01-06T02:29:26;1;1;
71858;PMS5003;59713;50.866;4.324;2024-01-06T02:30:26;0;0;
71858;PMS5003;59713;50.866;4.324;2024-01-06T02:30:26;0;0;
71858;PMS5003;59713;50.866;4.324;2024-01-06T02:31:26;0;0;
71858;PMS5003;59713;50.866;4.324;2024-01-06T02:32:26;0;0;
71858;PMS5003;59713;50.866;4.324;2024-01-06T02:33:26;2;2;
71858;PMS5003;59713;50.866;4.324;2024-01-06T02:34:26;2;2;
71858;PMS5003;59713;50.866;4.324;2024-01-06T02:35:26;2;2;
71858;PMS5003;59713;50.866;4.324;2024-01-06T02:36:26;2;0;
71858;PMS5003;59713;50.866;4.324;2024-01-06T02:37:26;2;0;
71858;PMS5003;59713;50.866;4.324;2024-01-06T02:38:26;2;0;
71858;PMS5003;59713;50.866;4.324;2024-01-06T02:39:26;3;0;
71858;PMS5003;59713;50.866;4.324;2024-01-06T02:40:26;3;0;
71858;PMS5003;59713;50.866;4.324;2024-01-06T02:41:26;3;0;
71858;PMS5003;59713;50.866;4.324;2024-01-06T02:42:26;2;1;
71858;PMS5003;59713;50.866;4.324;2024-01-06T02:43:26;2;1;
71858;PMS5003;59713;50.866;4.324;2024-01-06T02:44:26;2;1;
71858;PMS5003;59713;50.866;4.324;2024-01-06T02:45:26;4;1;
71858;PMS5003;59713;50.866;4.324;2024-01-06T02:46:26;4;1;
71858;PMS5003;59713;50.866;4.324;2024-01-06T02:47:26;4;1;
71858;PMS5003;59713;50.866;4.324;2024-01-06T02:48:26;1;1;
71858;PMS5003;59713;50.866;4.324;2024-01-06T02:48:26;1;1;
71858;PMS5003;59713;50.866;4.324;2024-01-06T02:49:26;1;1;
71858;PMS5003;59713;50.866;4.324;2024-01-06T02:50:26;1;1;
71858;PMS5003;59713;50.866;4.324;2024-01-06T02:51:26;1;1;
71858;PMS5003;59713;50.866;4.324;2024-01-06T02:52:26;1;1;
71858;PMS5003;59713;50.866;4.324;2024-01-06T02:53:26;1;1;
71858;PMS5003;59713;50.866;4.324;2024-01-06T02:54:26;2;2;
71858;PMS5003;59713;50.866;4.324;2024-01-06T02:55:26;2;2;
71858;PMS5003;59713;50.866;4.324;2024-01-06T02:56:26;2;2;
71858;PMS5003;59713;50.866;4.324;2024-01-06T02:57:26;0;0;
71858;PMS5003;59713;50.866;4.324;2024-01-06T02:57:26;0;0;
71858;PMS5003;59713;50.866;4.324;2024-01-06T02:58:26;0;0;
71858;PMS5003;59713;50.866;4.324;2024-01-06T02:59:26;0;0;
71858;PMS5003;59713;50.866;4.324;2024-01-06T03:00:27;1;1;
71858;PMS5003;59713;50.866;4.324;2024-01-06T03:01:26;1;1;
71858;PMS5003;59713;50.866;4.324;2024-01-06T03:02:26;1;1;
71858;PMS5003;59713;50.866;4.324;2024-01-06T03:03:27;3;0;
71858;PMS5003;59713;50.866;4.324;2024-01-06T03:04:26;3;0;
71858;PMS5003;59713;50.866;4.324;2024-01-06T03:05:26;3;0;
71858;PMS5003;59713;50.866;4.324;2024-01-06T03:06:26;0;0;
71858;PMS5003;59713;50.866;4.324;2024-01-06T03:07:26;0;0;
71858;PMS5003;59713;50.866;4.324;2024-01-06T03:07:26;0;0;
71858;PMS5003;59713;50.866;4.324;2024-01-06T03:08:26;0;0;
71858;PMS5003;59713;50.866;4.324;2024-01-06T03:09:26;2;2;
71858;PMS5003;59713;50.866;4.324;2024-01-06T03:10:26;2;2;
71858;PMS5003;59713;50.866;4.324;2024-01-06T03:11:26;2;2;
71858;PMS5003;59713;50.866;4.324;2024-01-06T03:12:26;1;1;
71858;PMS5003;59713;50.866;4.324;2024-01-06T03:13:26;1;1;
71858;PMS5003;59713;50.866;4.324;2024-01-06T03:14:26;1;1;
71858;PMS5003;59713;50.866;4.324;2024-01-06T03:15:26;2;2;
71858;PMS5003;59713;50.866;4.324;2024-01-06T03:16:26;2;2;
71858;PMS5003;59713;50.866;4.324;2024-01-06T03:16:26;2;2;
71858;PMS5003;59713;50.866;4.324;2024-01-06T03:17:26;2;2;
71858;PMS5003;59713;50.866;4.324;2024-01-06T03:18:26;2;2;
71858;PMS5003;59713;50.866;4.324;2024-01-06T03:19:26;2;2;
71858;PMS5003;59713;50.866;4.324;2024-01-06T03:20:26;2;2;
71858;PMS5003;59713;50.866;4.324;2024-01-06T03:21:26;2;1;
71858;PMS5003;59713;50.866;4.324;2024-01-06T03:22:26;2;1;
71858;PMS5003;59713;50.866;4.324;2024-01-06T03:23:26;2;1;
71858;PMS5003;59713;50.866;4.324;2024-01-06T03:24:26;5;2;
71858;PMS5003;59713;50.866;4.324;2024-01-06T03:25:27;5;2;
71858;PMS5003;59713;50.866;4.324;2024-01-06T03:26:26;5;2;
71858;PMS5003;59713;50.866;4.324;2024-01-06T03:26:26;5;2;
71858;PMS5003;59713;50.866;4.324;2024-01-06T03:27:26;4;4;
71858;PMS5003;59713;50.866;4.324;2024-01-06T03:28:26;4;4;
71858;PMS5003;59713;50.866;4.324;2024-01-06T03:29:26;4;4;
71858;PMS5003;59713;50.866;4.324;2024-01-06T03:30:26;5;4;
71858;PMS5003;59713;50.866;4.324;2024-01-06T03:31:26;5;4;
71858;PMS5003;59713;50.866;4.324;2024-01-06T03:32:26;5;4;
71858;PMS5003;59713;50.866;4.324;2024-01-06T03:33:26;1;1;
71858;PMS5003;59713;50.866;4.324;2024-01-06T03:34:26;1;1;
71858;PMS5003;59713;50.866;4.324;2024-01-06T03:35:26;1;1;
71858;PMS5003;59713;50.866;4.324;2024-01-06T03:35:26;1;1;
71858;PMS5003;59713;50.866;4.324;2024-01-06T03:36:26;4;3;
71858;PMS5003;59713;50.866;4.324;2024-01-06T03:37:26;4;3;
71858;PMS5003;59713;50.866;4.324;2024-01-06T03:38:26;4;3;
71858;PMS5003;59713;50.866;4.324;2024-01-06T03:39:26;3;3;
71858;PMS5003;59713;50.866;4.324;2024-01-06T03:40:26;3;3;
71858;PMS5003;59713;50.866;4.324;2024-01-06T03:41:26;3;3;
71858;PMS5003;59713;50.866;4.324;2024-01-06T03:42:26;3;3;
71858;PMS5003;59713;50.866;4.324;2024-01-06T03:43:26;3;3;
71858;PMS5003;59713;50.866;4.324;2024-01-06T03:44:26;3;3;
71858;PMS5003;59713;50.866;4.324;2024-01-06T03:44:26;3;3;
71858;PMS5003;59713;50.866;4.324;2024-01-06T03:45:26;2;2;
71858;PMS5003;59713;50.866;4.324;2024-01-06T03:46:26;2;2;
71858;PMS5003;59713;50.866;4.324;2024-01-06T03:47:26;2;2;
71858;PMS5003;59713;50.866;4.324;2024-01-06T03:48:26;5;4;
71858;PMS5003;59713;50.866;4.324;2024-01-06T03:49:26;5;4;
71858;PMS5003;59713;50.866;4.324;2024-01-06T03:50:27;5;4;
71858;PMS5003;59713;50.866;4.324;2024-01-06T03:51:27;4;4;
71858;PMS5003;59713;50.866;4.324;2024-01-06T03:52:26;4;4;
71858;PMS5003;59713;50.866;4.324;2024-01-06T03:53:26;4;4;
71858;PMS5003;59713;50.866;4.324;2024-01-06T03:53:26;4;4;
71858;PMS5003;59713;50.866;4.324;2024-01-06T03:54:26;4;4;
71858;PMS5003;59713;50.866;4.324;2024-01-06T03:55:26;4;4;
71858;PMS5003;59713;50.866;4.324;2024-01-06T03:56:26;4;4;
71858;PMS5003;59713;50.866;4.324;2024-01-06T03:57:26;7;5;
71858;PMS5003;59713;50.866;4.324;2024-01-06T03:58:26;7;5;
71858;PMS5003;59713;50.866;4.324;2024-01-06T03:59:26;7;5;
71858;PMS5003;59713;50.866;4.324;2024-01-06T04:00:26;6;6;
71858;PMS5003;59713;50.866;4.324;2024-01-06T04:01:26;6;6;
71858;PMS5003;59713;50.866;4.324;2024-01-06T04:02:26;6;6;
71858;PMS5003;59713;50.866;4.324;2024-01-06T04:02:26;6;6;
71858;PMS5003;59713;50.866;4.324;2024-01-06T04:03:26;6;6;
71858;PMS5003;59713;50.866;4.324;2024-01-06T04:04:26;6;6;
71858;PMS5003;59713;50.866;4.324;2024-01-06T04:05:26;6;6;
71858;PMS5003;59713;50.866;4.324;2024-01-06T04:06:26;6;5;
71858;PMS5003;59713;50.866;4.324;2024-01-06T04:07:26;6;5;
71858;PMS5003;59713;50.866;4.324;2024-01-06T04:08:26;6;5;
71858;PMS5003;59713;50.866;4.324;2024-01-06T04:09:26;4;4;
71858;PMS5003;59713;50.866;4.324;2024-01-06T04:10:26;4;4;
71858;PMS5003;59713;50.866;4.324;2024-01-06T04:11:26;4;4;
71858;PMS5003;59713;50.866;4.324;2024-01-06T04:11:26;4;4;
71858;PMS5003;59713;50.866;4.324;2024-01-06T04:12:26;6;5;
71858;PMS5003;59713;50.866;4.324;2024-01-06T04:13:26;6;5;
71858;PMS5003;59713;50.866;4.324;2024-01-06T04:14:26;6;5;
71858;PMS5003;59713;50.866;4.324;2024-01-06T04:15:26;6;6;
71858;PMS5003;59713;50.866;4.324;2024-01-06T04:16:26;6;6;
71858;PMS5003;59713;50.866;4.324;2024-01-06T04:17:26;6;6;
71858;PMS5003;59713;50.866;4.324;2024-01-06T04:18:26;8;7;
71858;PMS5003;59713;50.866;4.324;2024-01-06T04:19:26;8;7;
71858;PMS5003;59713;50.866;4.324;2024-01-06T04:20:26;8;7;
71858;PMS5003;59713;50.866;4.324;2024-01-06T04:21:26;9;9;
71858;PMS5003;59713;50.866;4.324;2024-01-06T04:21:26;9;9;
71858;PMS5003;59713;50.866;4.324;2024-01-06T04:22:26;9;9;
71858;PMS5003;59713;50.866;4.324;2024-01-06T04:23:26;9;9;
71858;PMS5003;59713;50.866;4.324;2024-01-06T04:24:26;6;6;
71858;PMS5003;59713;50.866;4.324;2024-01-06T04:25:26;6;6;
71858;PMS5003;59713;50.866;4.324;2024-01-06T04:26:26;6;6;
71858;PMS5003;59713;50.866;4.324;2024-01-06T04:27:26;7;7;
71858;PMS5003;59713;50.866;4.324;2024-01-06T04:28:26;7;7;
71858;PMS5003;59713;50.866;4.324;2024-01-06T04:29:26;7;7;
71858;PMS5003;59713;50.866;4.324;2024-01-06T04:30:26;9;7;
71858;PMS5003;59713;50.866;4.324;2024-01-06T04:30:26;9;7;
71858;PMS5003;59713;50.866;4.324;2024-01-06T04:31:26;9;7;
71858;PMS5003;59713;50.866;4.324;2024-01-06T04:32:26;9;7;
71858;PMS5003;59713;50.866;4.324;2024-01-06T04:33:26;9;7;
71858;PMS5003;59713;50.866;4.324;2024-01-06T04:34:26;9;7;
71858;PMS5003;59713;50.866;4.324;2024-01-06T04:35:26;9;7;
71858;PMS5003;59713;50.866;4.324;2024-01-06T04:36:27;10;8;
71858;PMS5003;59713;50.866;4.324;2024-01-06T04:37:26;10;8;
71858;PMS5003;59713;50.866;4.324;2024-01-06T04:38:26;10;8;
71858;PMS5003;59713;50.866;4.324;2024-01-06T04:39:26;8;8;
71858;PMS5003;59713;50.866;4.324;2024-01-06T04:39:26;8;8;
71858;PMS5003;59713;50.866;4.324;2024-01-06T04:40:26;8;8;
71858;PMS5003;59713;50.866;4.324;2024-01-06T04:41:26;8;8;
71858;PMS5003;59713;50.866;4.324;2024-01-06T04:42:26;9;9;
71858;PMS5003;59713;50.866;4.324;2024-01-06T04:43:26;9;9;
71858;PMS5003;59713;50.866;4.324;2024-01-06T04:44:26;9;9;
71858;PMS5003;59713;50.866;4.324;2024-01-06T04:45:26;9;7;
71858;PMS5003;59713;50.866;4.324;2024-01-06T04:46:26;9;7;
71858;PMS5003;59713;50.866;4.324;2024-01-06T04:47:26;9;7;
71858;PMS5003;59713;50.866;4.324;2024-01-06T04:48:26;8;8;
71858;PMS5003;59713;50.866;4.324;2024-01-06T04:48:26;8;8;
71858;PMS5003;59713;50.866;4.324;2024-01-06T04:49:26;8;8;
71858;PMS5003;59713;50.866;4.324;2024-01-06T04:50:26;8;8;
71858;PMS5003;59713;50.866;4.324;2024-01-06T04:51:26;7;7;
71858;PMS5003;59713;50.866;4.324;2024-01-06T04:52:26;7;7;
71858;PMS5003;59713;50.866;4.324;2024-01-06T04:53:26;7;7;
71858;PMS5003;59713;50.866;4.324;2024-01-06T04:54:26;9;9;
71858;PMS5003;59713;50.866;4.324;2024-01-06T04:55:26;9;9;
71858;PMS5003;59713;50.866;4.324;2024-01-06T04:56:26;9;9;
71858;PMS5003;59713;50.866;4.324;2024-01-06T04:57:26;8;7;
71858;PMS5003;59713;50.866;4.324;2024-01-06T04:57:26;8;7;
71858;PMS5003;59713;50.866;4.324;2024-01-06T04:58:26;8;7;
71858;PMS5003;59713;50.866;4.324;2024-01-06T04:59:27;8;7;
71858;PMS5003;59713;50.866;4.324;2024-01-06T05:00:26;6;5;
71858;PMS5003;59713;50.866;4.324;2024-01-06T05:01:26;6;5;
71858;PMS5003;59713;50.866;4.324;2024-01-06T05:02:26;6;5;
71858;PMS5003;59713;50.866;4.324;2024-01-06T05:03:26;10;10;
71858;PMS5003;59713;50.866;4.324;2024-01-06T05:04:26;10;10;
71858;PMS5003;59713;50.866;4.324;2024-01-06T05:05:26;10;10;
71858;PMS5003;59713;50.866;4.324;2024-01-06T05:06:26;9;7;
71858;PMS5003;59713;50.866;4.324;2024-01-06T05:07:26;9;7;
71858;PMS5003;59713;50.866;4.324;2024-01-06T05:08:26;9;7;
71858;PMS5003;59713;50.866;4.324;2024-01-06T05:09:26;11;9;
71858;PMS5003;59713;50.866;4.324;2024-01-06T05:10:26;11;9;
71858;PMS5003;59713;50.866;4.324;2024-01-06T05:11:26;11;9;
71858;PMS5003;59713;50.866;4.324;2024-01-06T05:12:26;9;9;
71858;PMS5003;59713;50.866;4.324;2024-01-06T05:13:26;9;9;
71858;PMS5003;59713;50.866;4.324;2024-01-06T05:14:26;9;9;
71858;PMS5003;59713;50.866;4.324;2024-01-06T05:15:26;13;12;
71858;PMS5003;59713;50.866;4.324;2024-01-06T05:16:26;13;12;
71858;PMS5003;59713;50.866;4.324;2024-01-06T05:17:26;13;12;
71858;PMS5003;59713;50.866;4.324;2024-01-06T05:17:26;13;12;
71858;PMS5003;59713;50.866;4.324;2024-01-06T05:18:26;7;7;
71858;PMS5003;59713;50.866;4.324;2024-01-06T05:19:26;7;7;
71858;PMS5003;59713;50.866;4.324;2024-01-06T05:20:26;7;7;
71858;PMS5003;59713;50.866;4.324;2024-01-06T05:21:26;8;7;
71858;PMS5003;59713;50.866;4.324;2024-01-06T05:22:26;8;7;
71858;PMS5003;59713;50.866;4.324;2024-01-06T05:23:26;8;7;
71858;PMS5003;59713;50.866;4.324;2024-01-06T05:24:26;12;10;
71858;PMS5003;59713;50.866;4.324;2024-01-06T05:25:26;12;10;
71858;PMS5003;59713;50.866;4.324;2024-01-06T05:26:26;12;10;
71858;PMS5003;59713;50.866;4.324;2024-01-06T05:26:26;12;10;
71858;PMS5003;59713;50.866;4.324;2024-01-06T05:27:26;11;9;
71858;PMS5003;59713;50.866;4.324;2024-01-06T05:28:26;11;9;
71858;PMS5003;59713;50.866;4.324;2024-01-06T05:29:26;11;9;
71858;PMS5003;59713;50.866;4.324;2024-01-06T05:30:26;11;10;
71858;PMS5003;59713;50.866;4.324;2024-01-06T05:31:26;11;10;
71858;PMS5003;59713;50.866;4.324;2024-01-06T05:32:26;11;10;
71858;PMS5003;59713;50.866;4.324;2024-01-06T05:33:26;9;9;
71858;PMS5003;59713;50.866;4.324;2024-01-06T05:34:26;9;9;
71858;PMS5003;59713;50.866;4.324;2024-01-06T05:35:26;9;9;
71858;PMS5003;59713;50.866;4.324;2024-01-06T05:35:26;9;9;
71858;PMS5003;59713;50.866;4.324;2024-01-06T05:36:26;11;9;
71858;PMS5003;59713;50.866;4.324;2024-01-06T05:37:26;11;9;
71858;PMS5003;59713;50.866;4.324;2024-01-06T05:38:26;11;9;
71858;PMS5003;59713;50.866;4.324;2024-01-06T05:39:27;6;6;
71858;PMS5003;59713;50.866;4.324;2024-01-06T05:40:26;6;6;
71858;PMS5003;59713;50.866;4.324;2024-01-06T05:41:26;6;6;
71858;PMS5003;59713;50.866;4.324;2024-01-06T05:42:26;7;6;
71858;PMS5003;59713;50.866;4.324;2024-01-06T05:43:26;7;6;
71858;PMS5003;59713;50.866;4.324;2024-01-06T05:44:26;7;6;
71858;PMS5003;59713;50.866;4.324;2024-01-06T05:45:26;10;9;
71858;PMS5003;59713;50.866;4.324;2024-01-06T05:45:26;10;9;
71858;PMS5003;59713;50.866;4.324;2024-01-06T05:46:26;10;9;
71858;PMS5003;59713;50.866;4.324;2024-01-06T05:47:26;10;9;
71858;PMS5003;59713;50.866;4.324;2024-01-06T05:48:26;9;8;
71858;PMS5003;59713;50.866;4.324;2024-01-06T05:49:26;9;8;
71858;PMS5003;59713;50.866;4.324;2024-01-06T05:50:26;9;8;
71858;PMS5003;59713;50.866;4.324;2024-01-06T05:51:26;4;4;
71858;PMS5003;59713;50.866;4.324;2024-01-06T05:52:26;4;4;
71858;PMS5003;59713;50.866;4.324;2024-01-06T05:53:26;4;4;
71858;PMS5003;59713;50.866;4.324;2024-01-06T05:54:26;8;7;
71858;PMS5003;59713;50.866;4.324;2024-01-06T05:54:26;8;7;
71858;PMS5003;59713;50.866;4.324;2024-01-06T05:55:26;8;7;
71858;PMS5003;59713;50.866;4.324;2024-01-06T05:56:26;8;7;
71858;PMS5003;59713;50.866;4.324;2024-01-06T05:57:26;4;4;
71858;PMS5003;59713;50.866;4.324;2024-01-06T05:58:26;4;4;
71858;PMS5003;59713;50.866;4.324;2024-01-06T05:59:26;4;4;
71858;PMS5003;59713;50.866;4.324;2024-01-06T06:00:26;7;7;
71858;PMS5003;59713;50.866;4.324;2024-01-06T06:01:26;7;7;
71858;PMS5003;59713;50.866;4.324;2024-01-06T06:02:26;7;7;
71858;PMS5003;59713;50.866;4.324;2024-01-06T06:03:26;7;6;
71858;PMS5003;59713;50.866;4.324;2024-01-06T06:03:26;7;6;
71858;PMS5003;59713;50.866;4.324;2024-01-06T06:04:26;7;6;
71858;PMS5003;59713;50.866;4.324;2024-01-06T06:05:26;7;6;
71858;PMS5003;59713;50.866;4.324;2024-01-06T06:06:26;9;7;
71858;PMS5003;59713;50.866;4.324;2024-01-06T06:07:26;9;7;
71858;PMS5003;59713;50.866;4.324;2024-01-06T06:08:26;9;7;
71858;PMS5003;59713;50.866;4.324;2024-01-06T06:09:26;12;9;
71858;PMS5003;59713;50.866;4.324;2024-01-06T06:10:26;12;9;
71858;PMS5003;59713;50.866;4.324;2024-01-06T06:11:26;12;9;
71858;PMS5003;59713;50.866;4.324;2024-01-06T06:12:27;9;8;
71858;PMS5003;59713;50.866;4.324;2024-01-06T06:12:27;9;8;
71858;PMS5003;59713;50.866;4.324;2024-01-06T06:13:29;9;8;